Time;durP1;ratioP1;P1;durP2;ratioP2;P2;SDS_P1;SDS_P2;PMS_P1;PMS_P2;Temp;Humidity;BMP_temperature;BMP_pressure;BME280_temperature;BME280_humidity;BME280_pressure;Samples;Min_cycle;Max_cycle;Signal;HPM_P1;HPM_P2
2023/12/08 00:14:00;;;;;;;8.73;4.07;;;;;;;4.17;100.00;100658.56;31054785;28;20069;-82
2023/12/08 00:29:04;;;;;;;12.10;5.77;;;;;;;4.35;100.00;100661.50;31073789;28;20050;-82
2023/12/08 00:44:08;;;;;;;10.50;5.60;;;;;;;4.45;100.00;100659.00;31046662;28;20050;-84
2023/12/08 00:59:10;;;;;;;12.23;6.53;;;;;;;4.59;100.00;100644.94;31119232;28;20062;-81
2023/12/08 01:14:12;;;;;;;6.63;4.30;;;;;;;4.45;100.00;100639.41;31150277;28;20396;-82
2023/12/08 01:29:15;;;;;;;9.90;5.53;;;;;;;4.50;100.00;100649.81;31069290;28;20495;-82
2023/12/08 01:44:17;;;;;;;7.90;4.90;;;;;;;4.53;100.00;100648.31;31157424;28;20029;-81
2023/12/08 01:59:21;;;;;;;10.33;5.57;;;;;;;4.67;100.00;100643.13;31159744;28;20080;-82
2023/12/08 02:14:22;;;;;;;10.30;5.53;;;;;;;4.55;100.00;100646.81;31113822;28;20054;-81
2023/12/08 02:29:25;;;;;;;7.90;4.00;;;;;;;4.55;100.00;100651.41;31087452;28;20070;-82
2023/12/08 02:44:27;;;;;;;7.13;4.00;;;;;;;4.69;100.00;100636.25;31066235;28;20495;-83
2023/12/08 02:59:29;;;;;;;5.70;2.90;;;;;;;4.98;100.00;100634.66;31146576;28;20058;-83
2023/12/08 03:14:31;;;;;;;6.83;3.80;;;;;;;4.93;100.00;100645.78;31027545;28;20077;-85
2023/12/08 03:29:33;;;;;;;6.47;3.10;;;;;;;4.78;100.00;100635.97;31121696;28;20099;-84
2023/12/08 03:44:35;;;;;;;5.43;3.07;;;;;;;4.84;100.00;100650.66;31067234;28;20085;-84
2023/12/08 03:59:37;;;;;;;4.27;2.83;;;;;;;4.87;100.00;100649.91;31067623;28;20054;-84
2023/12/08 04:14:39;;;;;;;3.57;2.57;;;;;;;5.08;100.00;100663.63;31007315;28;20069;-73
2023/12/08 04:29:43;;;;;;;6.13;2.50;;;;;;;4.97;100.00;100662.72;31074353;28;20050;-74
2023/12/08 04:44:44;;;;;;;4.43;2.60;;;;;;;4.82;100.00;100652.94;31055403;28;20062;-76
2023/12/08 04:59:47;;;;;;;10.33;4.27;;;;;;;4.87;100.00;100658.00;31020286;28;20096;-85
2023/12/08 05:14:49;;;;;;;3.50;2.43;;;;;;;4.77;100.00;100655.94;31032098;28;20562;-84
2023/12/08 05:29:51;;;;;;;3.73;2.33;;;;;;;4.82;100.00;100661.00;31116948;28;20048;-75
2023/12/08 05:44:53;;;;;;;9.43;4.40;;;;;;;4.90;100.00;100667.25;31101665;28;20140;-75
2023/12/08 05:59:55;;;;;;;4.27;2.67;;;;;;;4.82;100.00;100677.13;31006815;28;20104;-73
2023/12/08 06:14:59;;;;;;;5.17;2.80;;;;;;;4.73;100.00;100688.16;31108586;28;20053;-73
2023/12/08 06:30:03;;;;;;;6.73;2.93;;;;;;;5.08;100.00;100679.78;31062905;28;20055;-84
2023/12/08 06:45:06;;;;;;;5.07;2.83;;;;;;;4.98;100.00;100672.34;31036847;28;20054;-85
2023/12/08 07:00:10;;;;;;;6.00;3.47;;;;;;;5.10;100.00;100661.34;31051655;28;20057;-83
2023/12/08 07:15:12;;;;;;;5.13;2.77;;;;;;;4.99;100.00;100675.81;31127484;28;20164;-85
2023/12/08 07:30:15;;;;;;;4.43;3.03;;;;;;;5.06;100.00;100687.44;31151335;28;20057;-85
2023/12/08 07:45:17;;;;;;;6.97;2.93;;;;;;;5.28;100.00;100676.91;31153999;28;20045;-85
2023/12/08 08:00:21;;;;;;;3.67;2.47;;;;;;;5.12;100.00;100680.59;31020432;28;20053;-84
2023/12/08 08:15:24;;;;;;;4.53;2.43;;;;;;;5.24;100.00;100686.84;31087525;28;20438;-74
2023/12/08 08:30:26;;;;;;;4.90;3.17;;;;;;;5.32;100.00;100672.34;31051790;28;20070;-75
2023/12/08 08:45:28;;;;;;;9.53;2.97;;;;;;;5.29;100.00;100646.16;31037859;28;20735;-75
2023/12/08 09:00:30;;;;;;;4.93;2.83;;;;;;;5.17;100.00;100643.72;31049934;28;20100;-76
2023/12/08 09:15:33;;;;;;;5.33;3.10;;;;;;;5.16;100.00;100624.13;31028495;28;20554;-75
2023/12/08 09:30:35;;;;;;;3.33;2.53;;;;;;;5.10;100.00;100607.53;31072192;28;20078;-82
2023/12/08 09:45:38;;;;;;;4.07;2.90;;;;;;;5.37;100.00;100599.31;31064431;28;20423;-75
2023/12/08 10:00:40;;;;;;;4.30;2.90;;;;;;;5.28;100.00;100596.94;31116895;28;20051;-74
2023/12/08 10:15:45;;;;;;;5.47;2.93;;;;;;;5.16;100.00;100601.81;31122076;28;20064;-75
2023/12/08 10:30:51;;;;;;;5.20;3.30;;;;;;;5.10;100.00;100596.75;31115063;28;20061;-75
2023/12/08 10:45:54;;;;;;;7.60;3.47;;;;;;;5.23;100.00;100577.63;31035817;28;20064;-76
2023/12/08 11:00:57;;;;;;;5.93;3.20;;;;;;;5.28;100.00;100561.16;31076349;28;20050;-79
2023/12/08 11:16:05;;;;;;;4.20;3.00;;;;;;;5.45;100.00;100574.78;31050675;28;20058;-78
2023/12/08 11:31:24;;;;;;;6.43;2.40;;;;;;;5.47;100.00;100559.00;31109053;28;20508;-80
2023/12/08 11:46:27;;;;;;;5.70;2.90;;;;;;;5.19;100.00;100533.78;31120787;28;20042;-79
2023/12/08 12:01:29;;;;;;;4.30;2.73;;;;;;;5.21;100.00;100547.63;31077176;28;20073;-75
2023/12/08 12:16:31;;;;;;;4.60;3.07;;;;;;;5.31;100.00;100557.72;31087272;28;20058;-79
2023/12/08 12:31:33;;;;;;;3.77;2.40;;;;;;;5.20;100.00;100519.19;31124093;28;20092;-76
2023/12/08 12:46:41;;;;;;;6.47;3.47;;;;;;;5.66;100.00;100527.63;31139177;28;20049;-79
2023/12/08 13:01:48;;;;;;;19.87;3.93;;;;;;;5.39;100.00;100541.28;31075190;28;20133;-78
2023/12/08 13:16:50;;;;;;;9.33;4.50;;;;;;;5.24;100.00;100557.66;31070758;28;20082;-79
2023/12/08 13:31:53;;;;;;;5.90;3.87;;;;;;;5.43;100.00;100570.94;31044163;28;20108;-79
2023/12/08 13:46:55;;;;;;;5.70;3.50;;;;;;;5.05;100.00;100578.25;31017959;28;20066;-77
2023/12/08 14:01:57;;;;;;;4.37;3.07;;;;;;;5.28;100.00;100580.78;31050711;28;20056;-80
2023/12/08 14:16:59;;;;;;;6.47;3.87;;;;;;;5.51;100.00;100572.50;31055932;28;20034;-78
2023/12/08 14:32:01;;;;;;;8.47;4.23;;;;;;;5.68;100.00;100576.47;31033463;28;20405;-85
2023/12/08 14:47:03;;;;;;;9.40;5.30;;;;;;;5.30;100.00;100572.31;31114978;28;20026;-84
2023/12/08 15:02:06;;;;;;;6.70;4.63;;;;;;;5.19;100.00;100560.72;31104462;28;20484;-81
2023/12/08 15:17:08;;;;;;;5.93;4.70;;;;;;;5.29;100.00;100560.00;31103320;28;20050;-82
2023/12/08 15:32:11;;;;;;;7.40;4.73;;;;;;;5.24;100.00;100563.03;31094616;28;20057;-82
2023/12/08 15:47:13;;;;;;;7.50;4.70;;;;;;;5.14;100.00;100553.72;31073325;28;20061;-83
2023/12/08 16:02:15;;;;;;;9.83;5.60;;;;;;;5.26;100.00;100560.75;31081716;28;20049;-85
2023/12/08 16:17:17;;;;;;;9.33;5.10;;;;;;;5.11;100.00;100571.41;31032226;28;20054;-85
2023/12/08 16:32:25;;;;;;;7.83;5.23;;;;;;;5.27;100.00;100562.31;31036370;28;20460;-83
2023/12/08 16:47:28;;;;;;;9.87;6.37;;;;;;;5.33;100.00;100555.44;31033800;28;20046;-86
2023/12/08 17:02:30;;;;;;;8.63;5.57;;;;;;;5.41;100.00;100555.13;31131830;28;20054;-82
2023/12/08 17:17:32;;;;;;;13.13;6.57;;;;;;;5.18;100.00;100565.31;31111948;28;20054;-81
2023/12/08 17:32:35;;;;;;;8.30;4.30;;;;;;;5.25;100.00;100564.59;31101601;28;20093;-80
2023/12/08 17:47:37;;;;;;;9.77;4.83;;;;;;;5.27;100.00;100556.91;31091579;28;20052;-78
2023/12/08 18:02:41;;;;;;;8.67;5.47;;;;;;;5.30;100.00;100540.81;31073523;28;20065;-87
2023/12/08 18:17:43;;;;;;;8.20;5.37;;;;;;;5.28;100.00;100542.31;31106742;28;20575;-78
2023/12/08 18:32:45;;;;;;;13.10;5.80;;;;;;;5.34;100.00;100540.84;31121938;28;20058;-80
2023/12/08 18:47:47;;;;;;;10.93;4.50;;;;;;;5.22;100.00;100543.78;31092723;28;20076;-84
2023/12/08 19:02:49;;;;;;;10.03;5.27;;;;;;;5.39;100.00;100535.88;31049909;28;20058;-79
2023/12/08 19:17:54;;;;;;;8.90;5.40;;;;;;;5.30;100.00;100538.09;31057405;28;20150;-78
2023/12/08 19:32:56;;;;;;;10.10;6.23;;;;;;;5.30;100.00;100535.41;31105838;28;20388;-78
2023/12/08 19:47:58;;;;;;;10.03;6.30;;;;;;;5.35;100.00;100537.00;31040780;28;20085;-79
2023/12/08 20:03:02;;;;;;;12.33;5.50;;;;;;;5.17;100.00;100530.69;31057673;28;20133;-82
2023/12/08 20:18:05;;;;;;;11.17;5.77;;;;;;;5.16;100.00;100529.91;31116599;28;20058;-82
2023/12/08 20:33:09;;;;;;;13.17;6.57;;;;;;;5.29;100.00;100527.72;31030251;28;20050;-80
2023/12/08 20:48:11;;;;;;;24.07;9.53;;;;;;;5.29;100.00;100543.88;31108153;28;20062;-80
2023/12/08 21:03:13;;;;;;;8.67;4.90;;;;;;;5.35;100.00;100542.38;31073247;28;20082;-79
2023/12/08 21:18:15;;;;;;;11.73;5.83;;;;;;;5.39;100.00;100562.03;31025382;28;20054;-75
2023/12/08 21:33:18;;;;;;;5.60;3.40;;;;;;;5.43;100.00;100562.84;31082102;28;20141;-79
2023/12/08 21:48:20;;;;;;;12.27;5.87;;;;;;;5.52;100.00;100574.06;31139913;28;20050;-78
2023/12/08 22:03:22;;;;;;;11.43;6.50;;;;;;;5.65;100.00;100566.47;31142510;28;20065;-77
2023/12/08 22:18:24;;;;;;;15.37;6.37;;;;;;;5.65;100.00;100569.94;31119626;28;20072;-79
2023/12/08 22:33:27;;;;;;;13.07;6.33;;;;;;;5.73;100.00;100568.84;31127624;28;20045;-77
2023/12/08 22:48:29;;;;;;;12.93;7.77;;;;;;;5.65;100.00;100547.63;31015921;28;20093;-77
2023/12/08 23:03:31;;;;;;;16.57;8.10;;;;;;;5.66;100.00;100524.94;31042007;28;20057;-77
2023/12/08 23:18:34;;;;;;;13.07;6.57;;;;;;;5.62;100.00;100533.00;31021058;28;20057;-77
2023/12/08 23:33:36;;;;;;;12.47;6.30;;;;;;;5.55;100.00;100524.84;31124951;28;20131;-77
2023/12/08 23:48:39;;;;;;;10.33;6.37;;;;;;;5.60;100.00;100521.81;31105371;28;20123;-77
